• Join FlightAware (Why Join?)
  • Login
  • US Flag GB Flag 
22:44 EDT


 

Airport Tracker/Info


-or-


 

Live Flight TrackerFlight Track Log ✈ DAL268 ✈ 10-Sep-2013 ✈ KJFK - LLBG / TLV

Flight Track Log - Related Links

Times and Time Zones

All times are in EDT time to prevent confusion due to time zone crossing. See the DAL268 flight status page for this flight to view local times or setup timezone preferences in your user account.

Time Position Orientation Groundspeed Altitude Reporting Facility
EDT Latitude Longitude Course Direction KTS MPH feet Rate Location/Type
22:03 40.6420 -73.8100 217° Southwest 115 132  Level FlightAware
22:03 40.6380 -73.8010 120° Southeast 150 173 600 Level FlightAware
22:03 40.6300 -73.7820 119° Southeast 187 215 780 Level FlightAware
22:04 40.6200 -73.7560 117° Southeast 202 232 600 1,320 Climbing FlightAware
22:04 40.6170 -73.7330 100° East 207 238 1,000 1,200 Climbing FlightAware
22:04 40.6160 -73.7070 93° East 220 253 1,400 1,020 Climbing FlightAware
22:05 40.6150 -73.6790 93° East 243 280 1,700 840 Climbing FlightAware
22:05 40.6170 -73.6670 78° East 252 290 1,800 720 Climbing FlightAware
22:05 40.6210 -73.6560 64° Northeast 257 296 1,900 720 Climbing FlightAware
22:05 40.6270 -73.6450 54° Northeast 263 303 2,000 600 Climbing FlightAware
22:06 40.6440 -73.6220 46° Northeast 274 315 2,200 660 Climbing FlightAware
22:06 40.6660 -73.5980 40° Northeast 289 333 2,500 960 Climbing FlightAware
22:06 40.6880 -73.5740 40° Northeast 301 346 2,900 1,260 Climbing FlightAware
22:06 40.7010 -73.5600 39° Northeast 304 350 3,200 1,980 Climbing FlightAware
22:07 40.7270 -73.5310 40° Northeast 305 351 4,100 2,280 Climbing FlightAware
22:07 40.7400 -73.5170 39° Northeast 304 350 4,600 2,160 Climbing FlightAware
22:07 40.7660 -73.4890 39° Northeast 307 353 5,400 2,040 Climbing FlightAware
22:08 40.7890 -73.4650 38° Northeast 310 357 6,100 2,220 Climbing FlightAware
22:08 40.8120 -73.4410 38° Northeast 310 357 6,900 2,220 Climbing FlightAware
22:08 40.8330 -73.4180 40° Northeast 312 359 7,600 2,160 Climbing FlightAware
22:09 40.8510 -73.3990 39° Northeast 313 360 8,200 2,280 Climbing FlightAware
22:09 40.8720 -73.3770 38° Northeast 312 359 8,900 2,400 Climbing FlightAware
22:09 40.8970 -73.3500 39° Northeast 313 360 9,800 1,680 Climbing FlightAware
22:10 40.9370 -73.3090 38° Northeast 331 381 10,500 1,020 Climbing FlightAware
22:10 40.9780 -73.2810 27° Northeast 350 403 10,900 960 Climbing FlightAware
22:11 41.0360 -73.2600 15° North 374 430 11,600 1,200 Climbing FlightAware
22:12 41.0930 -73.2400 15° North 392 451 12,300 1,620 Climbing FlightAware
22:12 41.1530 -73.2190 15° North 402 463 13,400 1,920 Climbing FlightAware
22:13 41.2200 -73.1950 15° North 412 474 14,600 1,920 Climbing FlightAware
22:13 41.2890 -73.1700 15° North 420 483 15,800 1,920 Climbing FlightAware
22:14 41.3510 -73.1450 17° North 432 497 16,900 1,740 Climbing FlightAware
22:14 41.3970 -73.0970 38° Northeast 450 518 17,600 1,620 Climbing FlightAware
22:15 41.4380 -73.0080 58° Northeast 463 533 18,700 1,560 Climbing FlightAware
22:16 41.4730 -72.9280 60° Northeast 472 543 19,500 1,500 Climbing FlightAware
22:16 41.5110 -72.8400 60° Northeast 477 549 20,400 1,560 Climbing FlightAware
22:17 41.5500 -72.7510 60° Northeast 483 556 21,300 1,380 Climbing FlightAware
22:17 41.5920 -72.6550 60° Northeast 490 564 22,100 1,260 Climbing FlightAware
22:18 41.6350 -72.5560 60° Northeast 499 574 22,900 1,200 Climbing FlightAware
22:18 41.6730 -72.4710 59° Northeast 505 581 23,500 1,200 Climbing FlightAware
22:19 41.7160 -72.3790 58° Northeast 508 585 24,300 1,260 Climbing FlightAware
22:20 41.7650 -72.2950 52° Northeast 512 589 25,000 1,200 Climbing FlightAware
22:20 41.8240 -72.2070 48° Northeast 514 592 25,800 1,260 Climbing FlightAware
22:21 41.8780 -72.1250 48° Northeast 516 594 26,600 1,260 Climbing FlightAware
22:22 41.9390 -72.0310 49° Northeast 522 601 27,400 1,020 Climbing FlightAware
22:22 41.9900 -71.9530 49° Northeast 527 606 27,800 960 Climbing FlightAware
22:23 42.0500 -71.8620 48° Northeast 523 602 28,500 1,140 Climbing FlightAware
22:23 42.1120 -71.7680 48° Northeast 532 612 29,200 1,080 Climbing FlightAware
22:24 42.1840 -71.6570 49° Northeast 535 616 30,000 960 Climbing FlightAware
22:25 42.2380 -71.5750 48° Northeast 537 618 30,500 900 Climbing FlightAware
22:25 42.2950 -71.4870 49° Northeast 540 621 31,000 420 Climbing FlightAware
22:26 42.3520 -71.3980 49° Northeast 537 618 31,000  Level FlightAware
22:26 42.4090 -71.3100 49° Northeast 535 616 31,000  Level FlightAware
22:27 42.4710 -71.2130 49° Northeast 527 606 31,000  Level FlightAware
22:28 42.5380 -71.1090 49° Northeast 527 606 31,000  Level FlightAware
22:28 42.5950 -71.0190 49° Northeast 528 608 31,000  Level FlightAware
22:29 42.6420 -70.9460 49° Northeast 528 608 31,000  Level FlightAware
22:29 42.7000 -70.8550 49° Northeast 527 606 31,000  Level FlightAware
22:30 42.7630 -70.7550 49° Northeast 525 604 31,000  Level FlightAware
22:31 42.8200 -70.6650 49° Northeast 525 604 31,000  Level FlightAware
22:31 42.8670 -70.5910 49° Northeast 525 604 31,000  Level FlightAware
22:32 42.9200 -70.5060 50° Northeast 524 603 31,000  Level FlightAware
22:32 42.9870 -70.3990 49° Northeast 527 606 31,000  Level FlightAware
22:33 43.0390 -70.3160 49° Northeast 527 606 31,000  Level FlightAware
22:33 43.0860 -70.2400 50° Northeast 528 608 31,000  Level FlightAware
22:34 43.1480 -70.1410 49° Northeast 524 603 31,000  Level FlightAware
22:35 43.1980 -70.0590 50° Northeast 534 615 31,000  Level FlightAware
22:35 43.2710 -69.9420 49° Northeast 535 616 31,000  Level FlightAware
22:36 43.3540 -69.8060 50° Northeast 535 616 31,000  Level FlightAware
22:37 43.4170 -69.7050 49° Northeast 532 612 31,000  Level FlightAware
22:37 43.4750 -69.6090 50° Northeast 533 613 31,000  Level FlightAware
22:38 43.5320 -69.5150 50° Northeast 535 616 31,000  Level FlightAware
22:39 43.6110 -69.3850 50° Northeast 536 617 31,000  Level FlightAware
22:40 43.6850 -69.2620 50° Northeast 538 619 31,000  Level FlightAware
22:40 43.7530 -69.1480 50° Northeast 538 619 31,000  Level FlightAware
22:41 43.8010 -69.0660 51° Northeast 538 619 31,000  Level FlightAware
22:42 43.8490 -68.9840 51° Northeast 538 619 31,000  Level FlightAware
22:42 43.8970 -68.9020 51° Northeast 538 619 31,000  Level FlightAware
22:43 43.9960 -68.7430 49° Northeast 546 628 31,000  Level FlightAware
22:43 44.0500 -68.6520 50° Northeast 546 628 31,000  Level FlightAware
22:44 44.1090 -68.5520 51° Northeast 545 627 31,000  Level FlightAware
22:45 44.1640 -68.4580 51° Northeast 545 627 31,000  Level FlightAware
22:45 44.2200 -68.3630 51° Northeast 545 627 31,000  Level FlightAware
22:46 44.2800 -68.2600 51° Northeast 545 627 31,000  Level FlightAware
22:46 44.3270 -68.1800 51° Northeast 545 627 31,000  Level FlightAware
22:47 44.3860 -68.0770 51° Northeast 545 627 31,000  Level FlightAware
22:47 44.4450 -67.9760 51° Northeast 544 626 31,000  Level FlightAware
22:48 44.5020 -67.8760 51° Northeast 544 626 31,000  Level FlightAware
22:49 44.5510 -67.7920 51° Northeast 544 626 31,000  Level FlightAware
22:49 44.6090 -67.6910 51° Northeast 544 626 31,000  Level FlightAware
22:50 44.6660 -67.5910 51° Northeast 544 626 31,000  Level FlightAware
22:50 44.7230 -67.4910 51° Northeast 544 626 31,000  Level FlightAware
22:51 44.7720 -67.4050 51° Northeast 545 627 31,000  Level FlightAware
22:52 44.8290 -67.3040 51° Northeast 545 627 31,000  Level FlightAware
22:52 44.8870 -67.2010 52° Northeast 536 617 31,000  Level FlightAware
22:53 44.9340 -67.1260 48° Northeast 536 617 31,000  Level FlightAware
22:53 44.9910 -67.0450 45° Northeast 538 619 31,000  Level FlightAware
22:54 45.0520 -66.9600 45° Northeast 539 620 31,000  Level FlightAware
22:55 45.1360 -66.8440 44° Northeast 540 621 31,000  Level FlightAware
22:55 45.1980 -66.7570 45° Northeast 540 621 31,000  Level FlightAware
22:56 45.2670 -66.6600 45° Northeast 540 621 31,000  Level FlightAware
22:56 45.3310 -66.5700 45° Northeast 538 619 31,000  Level FlightAware
22:57 45.3870 -66.4900 45° Northeast 535 616 31,000  Level FlightAware
22:57 45.4340 -66.4240 45° Northeast 533 613 31,000  Level FlightAware
22:58 45.4990 -66.3300 45° Northeast 532 612 31,000  Level FlightAware
22:59 45.5600 -66.2440 45° Northeast 531 611 31,000  Level FlightAware
22:59 45.6240 -66.1510 45° Northeast 531 611 31,000  Level FlightAware
23:00 45.6820 -66.0690 45° Northeast 531 611 31,000  Level FlightAware
23:00 45.7450 -65.9770 46° Northeast 533 613 31,000  Level FlightAware
23:01 45.7990 -65.8980 46° Northeast 535 616 31,000  Level FlightAware
23:01 45.8640 -65.8040 45° Northeast 537 618 31,000  Level FlightAware
23:02 45.9240 -65.7160 46° Northeast 538 619 31,000  Level FlightAware
23:03 45.9890 -65.6220 45° Northeast 538 619 31,000  Level FlightAware
23:03 46.0450 -65.5390 46° Northeast 538 619 31,000  Level FlightAware
23:04 46.0940 -65.4660 46° Northeast 538 619 31,000  Level FlightAware
23:04 46.1700 -65.3550 45° Northeast 537 618 31,000  Level FlightAware
23:05 46.2260 -65.2730 45° Northeast 537 618 31,000  Level FlightAware
23:06 46.2800 -65.1960 45° Northeast 537 618 31,000  Level FlightAware
23:06 46.3340 -65.1180 45° Northeast 537 618 31,000  Level FlightAware
23:07 46.3880 -65.0400 45° Northeast 537 618 31,000  Level FlightAware
23:07 46.4430 -64.9600 45° Northeast 537 618 31,000  Level FlightAware
23:08 46.4960 -64.8820 45° Northeast 537 618 31,000  Level FlightAware
23:09 46.5500 -64.8030 45° Northeast 537 618 31,000  Level FlightAware
23:09 46.6040 -64.7250 45° Northeast 537 618 31,000  Level FlightAware
23:10 46.6580 -64.6470 45° Northeast 537 618 31,000  Level FlightAware
23:10 46.7110 -64.5690 45° Northeast 537 618 31,000  Level FlightAware
23:11 46.7610 -64.4970 45° Northeast 537 618 31,000  Level FlightAware
23:12 46.8140 -64.4180 46° Northeast 537 618 31,000  Level FlightAware
23:12 46.8680 -64.3390 45° Northeast 537 618 31,000  Level FlightAware
23:13 46.9220 -64.2610 45° Northeast 537 618 31,000  Level FlightAware
23:13 46.9760 -64.1820 45° Northeast 537 618 31,000  Level FlightAware
23:14 47.0290 -64.1030 45° Northeast 537 618 31,000  Level FlightAware
23:15 47.1833 -63.7167 45° Northeast 540 621 31,000  Level Gander Center
23:16 47.2833 -63.5667 45° Northeast 530 610 31,000  Level Gander Center
23:17 47.4000 -63.4000 44° Northeast 530 610 31,000  Level Gander Center
23:18 47.5000 -63.2333 48° Northeast 530 610 31,000  Level Gander Center
23:19 47.5833 -63.0833 50° Northeast 540 621 31,000  Level Gander Center
23:20 47.7000 -62.9000 47° Northeast 530 610 31,000  Level Moncton Center
23:21 47.8000 -62.7333 48° Northeast 540 621 31,000  Level Moncton Center
23:22 47.9000 -62.5667 48° Northeast 540 621 31,000  Level Moncton Center
23:23 48.0000 -62.4000 48° Northeast 530 610 31,000  Level Moncton Center
23:24 48.1000 -62.2333 48° Northeast 530 610 31,000  Level Moncton Center
23:25 48.2000 -62.0667 48° Northeast 530 610 31,000  Level Moncton Center
23:26 48.3167 -61.9000 44° Northeast 530 610 31,000  Level Moncton Center
23:27 48.4000 -61.7333 53° Northeast 540 621 31,000  Level Gander Center
23:28 48.4833 -61.5833 50° Northeast 530 610 31,000  Level Gander Center
23:29 48.5833 -61.4167 48° Northeast 530 610 31,000  Level Gander Center
23:30 48.6833 -61.2333 50° Northeast 530 610 31,000  Level Gander Center
23:31 48.7833 -61.0500 50° Northeast 530 610 31,000  Level Gander Center
23:32 48.8833 -60.9000 45° Northeast 540 621 31,000  Level Gander Center
23:33 48.9667 -60.7167 55° Northeast 530 610 31,000  Level Gander Center
23:34 49.0667 -60.5500 47° Northeast 540 621 31,000  Level Gander Center
23:35 49.1667 -60.3833 47° Northeast 530 610 31,000 -60 Level Gander Center
23:36 49.2667 -60.2000 50° Northeast 540 621 30,900  Descending Gander Center
23:37 49.3667 -60.0167 50° Northeast 540 621 31,000  Climbing Gander Center
23:38 49.4667 -59.8500 47° Northeast 540 621 31,000  Level Gander Center
23:39 49.5500 -59.6833 52° Northeast 540 621 31,000  Level Gander Center
23:45 50.1370 -58.5910 52° Northeast 553 636 31,000  Level FlightAware
23:45 50.1900 -58.4700 56° Northeast 555 639 31,000  Level FlightAware
23:46 50.2430 -58.3470 56° Northeast 556 640 31,000  Level FlightAware
23:47 50.2970 -58.2270 55° Northeast 556 640 31,000  Level FlightAware
23:47 50.3680 -58.0630 56° Northeast 558 642 31,000  Level FlightAware
23:48 50.4160 -57.9500 56° Northeast 560 644 31,000  Level FlightAware
23:49 50.4930 -57.7720 56° Northeast 559 643 31,000  Level FlightAware
23:49 50.5370 -57.6680 56° Northeast 559 643 31,000  Level FlightAware
23:50 50.5830 -57.5620 56° Northeast 559 643 31,000  Level FlightAware
23:51 50.6270 -57.4590 56° Northeast 559 643 31,000  Level FlightAware
23:51 50.6720 -57.3520 56° Northeast 559 643 31,000  Level FlightAware
23:52 50.7180 -57.2460 56° Northeast 559 643 31,000  Level FlightAware
23:52 50.7620 -57.1420 56° Northeast 559 643 31,000  Level FlightAware
23:53 50.8060 -57.0380 56° Northeast 559 643 31,000  Level FlightAware
23:54 50.8510 -56.9350 55° Northeast 559 643 31,000  Level FlightAware
23:54 50.8950 -56.8310 56° Northeast 559 643 31,000  Level FlightAware
23:55 50.9400 -56.7240 56° Northeast 559 643 31,000  Level FlightAware
23:55 50.9860 -56.6170 56° Northeast 559 643 31,000  Level FlightAware
23:56 51.0300 -56.5120 56° Northeast 559 643 31,000  Level FlightAware
23:57 51.0740 -56.4080 56° Northeast 559 643 31,000  Level FlightAware
23:57 51.1190 -56.3030 56° Northeast 559 643 31,000  Level FlightAware
23:58 51.1640 -56.1960 56° Northeast 559 643 31,000 480 Level FlightAware
23:59 51.3167 -55.6833 56° Northeast 560 644 31,700 840 Climbing Gander Center
23:59 51.3167 -55.6833 56° Northeast 570 656 31,700 600 Level Gander Center
00:01 51.4833 -55.2667 57° Northeast 550 633 33,000 420 Climbing Gander Center
00:02 51.5667 -55.0667 56° Northeast 570 656 33,000  Level Gander Center
00:04 51.7167 -54.6333 61° Northeast 560 644 33,000  Level Gander Center
00:05 51.8167 -54.4000 55° Northeast 570 656 33,000  Level Gander Center
00:06 51.9000 -54.2000 56° Northeast 570 656 33,000  Level Gander Center
00:07 51.9667 -54.0000 62° Northeast 570 656 33,000  Level Gander Center
00:08 52.0500 -53.7667 60° Northeast 570 656 33,000  Level Gander Center
00:09 52.1333 -53.5333 60° Northeast 590 679 33,000  Level Gander Center
00:10 52.2167 -53.3000 60° Northeast 590 679 33,000  Level Gander Center
00:11 52.2833 -53.0500 66° East 600 690 33,000  Level Gander Center
00:12 52.3333 -52.7833 73° East 610 702 33,000  Level Gander Center
00:13 52.4000 -52.5167 68° East 580 667 33,000  Level Gander Center
00:14 52.4500 -52.3000 69° East 600 690 33,000  Level Gander Center
00:16 52.5833 -51.7667 67° East 600 690 33,000  Level Gander Center
00:17 52.6333 -51.5167 72° East 600 690 33,000  Level Gander Center
00:18 52.6833 -51.2500 73° East 600 690 33,000  Level Gander Center
00:19 52.7500 -50.9833 67° East 600 690 33,000  Level Gander Center
00:20 52.8167 -50.7500 65° Northeast 600 690 33,000  Level Gander Center
00:22 52.9189 -50.3350 68° East  Level FlightAware Approximate
00:29 53.3074 -48.7399 67° East  Level FlightAware Approximate
00:30 53.3616 -48.5101 68° East  Level FlightAware Approximate
00:31 53.4153 -48.2796 69° East  Level FlightAware Approximate
00:32 53.4686 -48.0485 69° East  Level FlightAware Approximate
00:32 53.0000 -50.0000 67° East 603 694 33,000  Level ETMS Enhanced Traffic Management System
00:33 53.5215 -47.8168 69° East  Level FlightAware Approximate
00:34 53.5739 -47.5846 69° East  Level FlightAware Approximate
00:35 53.6258 -47.3518 69° East  Level FlightAware Approximate
00:36 53.6773 -47.1185 69° East  Level FlightAware Approximate
00:37 53.7284 -46.8845 70° East  Level FlightAware Approximate
00:38 53.9103 -46.0629 70° East 603 694 33,000  Level FlightAware Transoceanic
00:39 53.9663 -45.7946 71° East 603 694 33,000  Level FlightAware Transoceanic
00:40 54.0218 -45.5254 71° East 603 694 33,000  Level FlightAware Transoceanic
00:41 54.0766 -45.2556 71° East 603 694 33,000  Level FlightAware Transoceanic
00:42 54.1308 -44.9851 71° East 603 694 33,000  Level FlightAware Transoceanic
00:43 54.1844 -44.7138 71° East 603 694 33,000  Level FlightAware Transoceanic
00:44 54.2374 -44.4419 72° East 603 694 33,000  Level FlightAware Transoceanic
00:45 54.2898 -44.1693 72° East 603 694 33,000  Level FlightAware Transoceanic
00:46 54.3415 -43.8959 72° East 603 694 33,000  Level FlightAware Transoceanic
00:47 54.3927 -43.6219 72° East 603 694 33,000  Level FlightAware Transoceanic
00:48 54.4432 -43.3472 73° East 603 694 33,000  Level FlightAware Transoceanic
00:49 54.4931 -43.0719 73° East 603 694 33,000  Level FlightAware Transoceanic
00:50 54.5424 -42.7958 73° East 603 694 33,000  Level FlightAware Transoceanic
00:51 54.5910 -42.5191 73° East 603 694 33,000  Level FlightAware Transoceanic
00:52 54.6390 -42.2418 73° East 603 694 33,000  Level FlightAware Transoceanic
00:53 54.6864 -41.9638 74° East 603 694 33,000  Level FlightAware Transoceanic
00:54 54.7331 -41.6851 74° East 603 694 33,000  Level FlightAware Transoceanic
00:55 54.7792 -41.4058 74° East 603 694 33,000  Level FlightAware Transoceanic
00:56 54.8247 -41.1259 74° East 603 694 33,000  Level FlightAware Transoceanic
00:57 54.8695 -40.8453 75° East 603 694 33,000  Level FlightAware Transoceanic
00:58 54.9136 -40.5642 75° East 603 694 33,000  Level FlightAware Transoceanic
00:59 54.9571 -40.2824 75° East 603 694 33,000  Level FlightAware Transoceanic
01:00 54.9949 -40.0338 75° East  Level FlightAware Approximate
01:01 55.0322 -39.7847 75° East  Level FlightAware Approximate
01:02 55.0261 -39.8181 76° East  Level FlightAware Approximate
01:03 55.0614 -39.5680 76° East  Level FlightAware Approximate
01:04 55.0963 -39.3174 76° East  Level FlightAware Approximate
01:05 55.1306 -39.0664 76° East  Level FlightAware Approximate
01:06 55.1644 -38.8150 77° East  Level FlightAware Approximate
01:07 55.1977 -38.5632 77° East  Level FlightAware Approximate
01:08 55.2305 -38.3110 77° East  Level FlightAware Approximate
01:09 55.2627 -38.0583 77° East  Level FlightAware Approximate
01:09 55.0000 -40.0000 76° East 574 661 33,000  Level ETMS Enhanced Traffic Management System
01:09 55.0000 -40.0000 76° East 574 661 33,000  Level ETMS Enhanced Traffic Management System
01:10 55.2945 -37.8052 77° East  Level FlightAware Approximate
01:11 55.3257 -37.5518 78° East  Level FlightAware Approximate
01:12 55.3563 -37.2979 78° East  Level FlightAware Approximate
01:13 55.3865 -37.0436 78° East  Level FlightAware Approximate
01:14 55.4161 -36.7890 78° East  Level FlightAware Approximate
01:15 55.5155 -35.8965 79° East 574 661 33,000  Level FlightAware Transoceanic
01:16 55.5449 -35.6193 79° East 574 661 33,000  Level FlightAware Transoceanic
01:17 55.5737 -35.3417 80° East 574 661 33,000  Level FlightAware Transoceanic
01:18 55.6019 -35.0636 80° East 574 661 33,000  Level FlightAware Transoceanic
01:19 55.6294 -34.7853 80° East 574 661 33,000  Level FlightAware Transoceanic
01:20 55.6563 -34.5065 80° East 574 661 33,000  Level FlightAware Transoceanic
01:21 55.6826 -34.2273 81° East 574 661 33,000  Level FlightAware Transoceanic
01:22 55.7083 -33.9478 81° East 574 661 33,000  Level FlightAware Transoceanic
01:23 55.7333 -33.6679 81° East 574 661 33,000  Level FlightAware Transoceanic
01:24 55.7577 -33.3876 81° East 574 661 33,000  Level FlightAware Transoceanic
01:25 55.7814 -33.1070 82° East 574 661 33,000  Level FlightAware Transoceanic
01:26 55.8045 -32.8260 82° East 574 661 33,000  Level FlightAware Transoceanic
01:27 55.8270 -32.5448 82° East 574 661 33,000  Level FlightAware Transoceanic
01:28 55.8488 -32.2632 82° East 574 661 33,000  Level FlightAware Transoceanic
01:29 55.8699 -31.9813 82° East 574 661 33,000  Level FlightAware Transoceanic
01:30 55.8905 -31.6991 83° East 574 661 33,000  Level FlightAware Transoceanic
01:31 55.9103 -31.4166 83° East 574 661 33,000  Level FlightAware Transoceanic
01:32 55.9296 -31.1338 83° East 574 661 33,000  Level FlightAware Transoceanic
01:33 55.9482 -30.8507 83° East 574 661 33,000  Level FlightAware Transoceanic
01:34 55.9661 -30.5674 84° East 574 661 33,000  Level FlightAware Transoceanic
01:35 55.9834 -30.2838 84° East 574 661 33,000  Level FlightAware Transoceanic
01:36 55.9988 -30.0214 84° East  Level FlightAware Approximate
01:37 56.0136 -29.7588 84° East  Level FlightAware Approximate
01:38 56.0076 -29.7795 86° East  Level FlightAware Approximate
01:38 56.0000 -30.0000 86° East 558 642 33,000  Level ETMS Enhanced Traffic Management System
01:39 56.0161 -29.5159 87° East  Level FlightAware Approximate
01:40 56.0241 -29.2522 87° East  Level FlightAware Approximate
01:41 56.0315 -28.9884 87° East  Level FlightAware Approximate
01:42 56.0384 -28.7245 87° East  Level FlightAware Approximate
01:43 56.0447 -28.4605 87° East  Level FlightAware Approximate
01:44 56.0505 -28.1965 87° East  Level FlightAware Approximate
01:45 56.0759 -27.5033 88° East 558 642 33,000  Level FlightAware Transoceanic
01:46 56.0812 -27.2253 88° East 558 642 33,000  Level FlightAware Transoceanic
01:47 56.0859 -26.9473 88° East 558 642 33,000  Level FlightAware Transoceanic
01:48 56.0899 -26.6693 89° East 558 642 33,000  Level FlightAware Transoceanic
01:49 56.0934 -26.3911 89° East 558 642 33,000  Level FlightAware Transoceanic
01:50 56.0962 -26.1130 89° East 558 642 33,000  Level FlightAware Transoceanic
01:51 56.0984 -25.8347 89° East 558 642 33,000  Level FlightAware Transoceanic
01:52 56.0999 -25.5565 90° East 558 642 33,000  Level FlightAware Transoceanic
01:53 56.1009 -25.2783 90° East 558 642 33,000  Level FlightAware Transoceanic
01:54 56.1012 -25.0000 90° East 558 642 33,000  Level FlightAware Transoceanic
01:55 56.1009 -24.7217 90° East 558 642 33,000  Level FlightAware Transoceanic
01:56 56.0999 -24.4435 90° East 558 642 33,000  Level FlightAware Transoceanic
01:57 56.0984 -24.1653 91° East 558 642 33,000  Level FlightAware Transoceanic
01:58 56.0962 -23.8870 91° East 558 642 33,000  Level FlightAware Transoceanic
01:59 56.0934 -23.6089 91° East 558 642 33,000  Level FlightAware Transoceanic
02:00 56.0899 -23.3307 91° East 558 642 33,000  Level FlightAware Transoceanic
02:01 56.0859 -23.0527 92° East 558 642 33,000  Level FlightAware Transoceanic
02:02 56.0812 -22.7747 92° East 558 642 33,000  Level FlightAware Transoceanic
02:03 56.0759 -22.4967 92° East 558 642 33,000  Level FlightAware Transoceanic
02:04 56.0699 -22.2189 92° East 558 642 33,000  Level FlightAware Transoceanic
02:05 56.0634 -21.9411 93° East 558 642 33,000  Level FlightAware Transoceanic
02:06 56.0562 -21.6634 93° East 558 642 33,000  Level FlightAware Transoceanic
02:07 56.0484 -21.3859 93° East 558 642 33,000  Level FlightAware Transoceanic
02:08 56.0399 -21.1084 93° East 558 642 33,000  Level FlightAware Transoceanic
02:09 56.0309 -20.8311 93° East 558 642 33,000  Level FlightAware Transoceanic
02:10 56.0212 -20.5539 94° East 558 642 33,000  Level FlightAware Transoceanic
02:11 56.0109 -20.2769 94° East 558 642 33,000  Level FlightAware Transoceanic
02:12 56.0005 -20.0136 94° East  Level FlightAware Approximate
02:13 55.9896 -19.7504 94° East  Level FlightAware Approximate
02:14 55.9749 -19.7676 101° East  Level FlightAware Approximate
02:15 55.9464 -19.5089 101° East  Level FlightAware Approximate
02:16 55.9173 -19.2506 101° East  Level FlightAware Approximate
02:17 55.8877 -18.9926 101° East  Level FlightAware Approximate
02:18 55.8576 -18.7351 102° East  Level FlightAware Approximate
02:19 55.8269 -18.4780 102° East  Level FlightAware Approximate
02:20 55.7957 -18.2213 102° East  Level FlightAware Approximate
02:21 55.7640 -17.9650 102° East  Level FlightAware Approximate
02:22 55.7317 -17.7091 103° East  Level FlightAware Approximate
02:23 55.6989 -17.4536 103° East  Level FlightAware Approximate
02:24 55.6656 -17.1986 103° East  Level FlightAware Approximate
02:25 55.6317 -16.9440 103° East  Level FlightAware Approximate
02:26 55.5973 -16.6898 103° East  Level FlightAware Approximate
02:27 55.5624 -16.4361 104° East  Level FlightAware Approximate
02:28 55.5270 -16.1829 104° East  Level FlightAware Approximate
02:29 55.4910 -15.9301 104° East  Level FlightAware Approximate
02:30 55.4546 -15.6778 104° East  Level FlightAware Approximate
02:31 55.4176 -15.4259 104° East  Level FlightAware Approximate
02:32 55.3801 -15.1745 105° East  Level FlightAware Approximate
02:33 55.3420 -14.9236 105° East  Level FlightAware Approximate
02:34 55.3035 -14.6732 105° East  Level FlightAware Approximate
02:35 55.2654 -14.4291 105° East  Level FlightAware Approximate
02:36 55.2267 -14.1854 105° East  Level FlightAware Approximate
02:37 55.1876 -13.9422 106° East  Level FlightAware Approximate
02:37 55.6080 -13.2770 106° East 550 633 33,000  Level FlightAware
02:37 55.5590 -13.1270 120° Southeast 549 632 33,000  Level FlightAware
02:38 55.1480 -13.6995 106° East  Level FlightAware Approximate
02:38 55.5100 -12.9810 121° Southeast 548 631 33,000  Level FlightAware
02:39 55.4640 -12.8460 121° Southeast 547 629 33,000  Level FlightAware
02:39 55.4190 -12.7120 121° Southeast 546 628 33,000  Level FlightAware
02:40 55.3730 -12.5770 121° Southeast 546 628 33,000  Level FlightAware
02:40 55.3280 -12.4450 121° Southeast 545 627 33,000  Level FlightAware
02:41 55.2750 -12.2890 121° Southeast 545 627 33,000  Level FlightAware
02:41 55.2360 -12.1770 121° Southeast 545 627 33,000  Level FlightAware
02:42 55.1890 -12.0420 121° Southeast 545 627 33,000  Level FlightAware
02:43 55.1440 -11.9130 121° Southeast 545 627 33,000  Level FlightAware
02:43 55.0980 -11.7810 121° Southeast 549 632 33,000  Level FlightAware
02:44 55.0500 -11.6440 121° Southeast 549 632 33,000  Level FlightAware
02:44 55.0030 -11.5140 122° Southeast 550 633 33,000  Level FlightAware
02:45 54.9560 -11.3810 122° Southeast 549 632 33,000  Level FlightAware
02:46 54.9030 -11.2340 122° Southeast 548 631 33,000  Level FlightAware
02:46 54.8640 -11.1250 122° Southeast 547 629 33,000  Level FlightAware
02:47 54.8160 -10.9910 122° Southeast 547 629 33,000  Level FlightAware
02:47 54.7680 -10.8600 122° Southeast 547 629 33,000  Level FlightAware
02:48 54.7220 -10.7340 122° Southeast 547 629 33,000  Level FlightAware
02:48 54.6740 -10.6020 122° Southeast 547 629 33,000  Level FlightAware
02:49 54.6260 -10.4750 123° Southeast 543 625 33,000  Level FlightAware
02:50 54.5780 -10.3440 122° Southeast 543 625 33,000  Level FlightAware
02:50 54.5240 -10.1990 123° Southeast 544 626 33,000  Level FlightAware
02:51 54.4700 -10.0290 119° Southeast 544 626 33,000  Level FlightAware
02:52 54.4410 -9.8850 109° East 544 626 33,000  Level FlightAware
02:52 54.4140 -9.7450 108° East 543 625 33,000  Level FlightAware
02:53 54.3860 -9.5960 108° East 542 624 33,000  Level FlightAware
02:53 54.3580 -9.4520 108° East 542 624 33,000  Level FlightAware
02:54 54.3300 -9.3110 109° East 540 621 33,000  Level FlightAware
02:55 54.3010 -9.1660 109° East 543 625 33,000  Level FlightAware
02:55 54.2730 -9.0260 109° East 543 625 33,000  Level FlightAware
02:56 54.2450 -8.8830 108° East 543 625 33,000  Level FlightAware
02:56 54.2160 -8.7430 109° East 542 624 33,000  Level FlightAware
02:57 54.1870 -8.5990 109° East 543 625 33,000  Level FlightAware
02:57 54.1600 -8.4650 109° East 542 624 33,000 -120 Level FlightAware
02:58 54.1176 -8.3616 109° East 506 582 32,900  Descending FlightAware UK
02:58 54.1290 -8.3160 109° East 541 623 33,000 120 Climbing FlightAware
02:59 54.1000 -8.1800 110° East 541 623 33,000  Level FlightAware
02:59 54.0710 -8.0360 109° East 541 623 33,000  Level FlightAware
03:00 54.0400 -7.8910 110° East 540 621 33,000  Level FlightAware
03:00 54.0120 -7.7600 110° East 540 621 33,000  Level FlightAware
03:01 53.9810 -7.6140 110° East 539 620 33,000 -120 Level FlightAware
03:02 53.9410 -7.5236 110° East 508 585 32,900  Descending FlightAware UK
03:02 53.9500 -7.4710 110° East 538 619 33,000 120 Climbing FlightAware
03:02 53.9200 -7.3300 110° East 538 619 33,000  Level FlightAware
03:03 53.8920 -7.2010 110° East 537 618 33,000  Level FlightAware
03:03 53.8610 -7.0610 111° Southeast 535 616 33,000  Level FlightAware
03:04 53.8290 -6.9190 111° Southeast 535 616 33,000  Level FlightAware
03:05 53.7980 -6.7770 110° East 534 615 33,000  Level FlightAware
03:05 53.7700 -6.6520 111° Southeast 532 612 33,000 -120 Level FlightAware
03:06 53.7277 -6.5603 111° Southeast 508 585 32,900  Descending FlightAware UK
03:06 53.7390 -6.5130 111° Southeast 532 612 33,000  Climbing FlightAware
03:06 53.7015 -6.4445 111° Southeast 506 582 32,900  Descending FlightAware UK
03:06 53.7060 -6.3690 111° Southeast 531 611 33,000 120 Climbing FlightAware
03:07 53.6770 -6.2440 111° Southeast 532 612 33,000  Level FlightAware
03:07 53.6450 -6.1050 111° Southeast 533 613 33,000  Level FlightAware
03:08 53.6130 -5.9650 111° Southeast 532 612 33,000  Level FlightAware
03:09 53.5840 -5.8430 112° Southeast 532 612 33,000  Level FlightAware
03:09 53.5520 -5.7030 112° Southeast 534 615 33,000 -180 Level FlightAware
03:09 53.5403 -5.7514 112° Southeast 504 580 32,900 -240 Descending FlightAware UK
03:10 53.5130 -5.6361 112° Southeast 506 582 32,900 120 Level FlightAware UK
03:10 53.5190 -5.5650 112° Southeast 535 616 33,000 120 Climbing FlightAware
03:10 53.5030 -5.4380 102° East 515 593 33,000  Level FlightAware
03:11 53.5010 -5.2930 91° East 514 592 33,000 300 Level FlightAware
03:12 53.4950 -5.1410 94° East 517 595 33,400 1,080 Climbing FlightAware
03:12 53.4900 -5.0310 94° East 514 592 34,200 1,380 Climbing FlightAware
03:13 53.4697 -4.9217 94° East 508 585 35,000 1,200 Climbing FlightAware UK
03:13 53.4800 -4.8740 94° East 509 586 35,000  Level FlightAware
03:13 53.4720 -4.7410 94° East 504 580 35,000 -180 Level FlightAware
03:13 53.4605 -4.7814 94° East 508 585 34,900 -240 Descending FlightAware UK
03:14 53.4573 -4.6658 94° East 502 578 34,900 180 Level FlightAware UK
03:14 53.4680 -4.6210 94° East 499 574 35,000 120 Climbing FlightAware
03:14 53.4630 -4.4680 93° East 497 572 35,000  Level FlightAware
03:15 53.4580 -4.3310 93° East 498 573 35,000  Level FlightAware
03:16 53.4520 -4.1960 94° East 496 571 35,000  Level FlightAware
03:16 53.4470 -4.0720 94° East 495 570 35,000  Level FlightAware
03:17 53.4410 -3.9280 94° East 495 570 35,000  Level FlightAware
03:17 53.4350 -3.7970 94° East 495 570 35,000  Level FlightAware
03:18 53.4264 -3.6316 95° East 500 575 35,000  Level FlightAware ADS-B
03:18 53.4238 -3.6093 101° East 505 581 35,000  Level FlightAware ADS-B
03:19 53.3899 -3.4882 115° Southeast 527 606 35,000  Level FlightAware ADS-B
03:19 53.3262 -3.3643 131° Southeast 533 613 35,000  Level FlightAware ADS-B
03:20 53.2736 -3.2654 132° Southeast 535 616 35,000  Level FlightAware ADS-B
03:21 53.2068 -3.1409 132° Southeast 535 616 35,000  Level FlightAware ADS-B
03:21 53.1549 -3.0442 132° Southeast 537 618 35,000  Level FlightAware ADS-B
03:22 53.1048 -2.9513 132° Southeast 538 619 35,000  Level FlightAware ADS-B
03:22 53.0544 -2.8590 132° Southeast 538 619 35,000  Level FlightAware ADS-B
03:23 53.0033 -2.7659 132° Southeast 537 618 35,000  Level FlightAware ADS-B
03:23 52.9529 -2.6741 132° Southeast 537 618 35,000  Level FlightAware ADS-B
03:24 52.8981 -2.5752 133° Southeast 538 619 35,000  Level FlightAware ADS-B
03:24 52.8391 -2.4692 133° Southeast 539 620 35,000  Level FlightAware ADS-B
03:25 52.7872 -2.3769 133° Southeast 540 621 35,000  Level FlightAware ADS-B
03:25 52.7332 -2.2813 133° Southeast 541 623 35,000  Level FlightAware ADS-B
03:26 52.6736 -2.1762 133° Southeast 541 623 35,000  Level FlightAware ADS-B
03:26 52.6186 -2.0801 133° Southeast 542 624 35,000  Level FlightAware ADS-B
03:27 52.5658 -1.9883 133° Southeast 542 624 35,000  Level FlightAware ADS-B
03:27 52.5361 -1.9412 136° Southeast 549 632 35,000  Level FlightAware ADS-B
03:27 52.5169 -1.9166 142° Southeast 553 636 35,000  Level FlightAware ADS-B
03:28 52.4517 -1.8450 146° Southeast 556 640 35,000  Level FlightAware ADS-B
03:28 52.3871 -1.7755 147° Southeast 556 640 35,000  Level FlightAware ADS-B
03:29 52.3225 -1.7055 147° Southeast 556 640 35,000  Level FlightAware ADS-B
03:29 52.2485 -1.6257 147° Southeast 556 640 35,000  Level FlightAware ADS-B
03:30 52.1863 -1.5501 143° Southeast 554 638 35,000  Level FlightAware ADS-B
03:30 52.1245 -1.4737 143° Southeast 555 639 35,000  Level FlightAware ADS-B
03:31 52.0614 -1.3966 143° Southeast 556 640 35,000  Level FlightAware ADS-B
03:31 51.9931 -1.3139 143° Southeast 556 640 35,000  Level FlightAware ADS-B
03:32 51.9305 -1.2389 144° Southeast 556 640 35,000  Level FlightAware ADS-B
03:33 51.8661 -1.1623 144° Southeast 557 641 35,000  Level FlightAware ADS-B
03:33 51.8030 -1.0879 144° Southeast 556 640 35,000  Level FlightAware ADS-B
03:34 51.7402 -1.0151 144° Southeast 556 640 35,000  Level FlightAware ADS-B
03:34 51.6772 -0.9430 145° Southeast 553 636 35,000  Level FlightAware ADS-B
03:35 51.6139 -0.8711 145° Southeast 552 635 35,000  Level FlightAware ADS-B
03:35 51.5470 -0.7960 145° Southeast 551 634 35,000  Level FlightAware ADS-B
03:36 51.4841 -0.7257 145° Southeast 551 634 35,000  Level FlightAware ADS-B
03:36 51.4178 -0.6527 146° Southeast 551 634 35,000  Level FlightAware ADS-B
03:37 51.3529 -0.5817 146° Southeast 550 633 35,000  Level FlightAware ADS-B
03:37 51.2893 -0.5128 146° Southeast 549 632 35,000  Level FlightAware ADS-B
03:38 51.2249 -0.4441 146° Southeast 548 631 35,000  Level FlightAware ADS-B
03:38 51.1564 -0.3719 146° Southeast 547 629 35,000  Level FlightAware ADS-B
03:39 51.0922 -0.3051 147° Southeast 547 629 35,000  Level FlightAware ADS-B
03:39 51.0675 -0.2782 146° Southeast 540 621 35,000  Level FlightAware ADS-B
03:39 51.0492 -0.2539 140° Southeast 530 610 35,000  Level FlightAware ADS-B
03:39 51.0342 -0.2306 136° Southeast 521 600 35,000  Level FlightAware ADS-B
03:39 51.0117 -0.1870 129° Southeast 507 583 35,000  Level FlightAware ADS-B
03:40 50.9984 -0.1544 123° Southeast 495 570 35,000  Level FlightAware ADS-B
03:40 50.9881 -0.1231 118° Southeast 485 558 35,000  Level FlightAware ADS-B
03:40 50.9701 -0.0379 109° East 460 529 35,000  Level FlightAware ADS-B
03:40 50.9657 0.0086 99° East 448 516 35,000  Level FlightAware ADS-B
03:41 50.9649 0.0299 93° East 441 507 35,000  Level FlightAware ADS-B
03:41 50.9647 0.0414 92° East 438 504 35,000  Level FlightAware ADS-B
03:41 50.9696 0.1424 86° East 428 493 35,000  Level FlightAware ADS-B
03:42 50.9754 0.2362 84° East 427 491 35,000  Level FlightAware ADS-B
03:42 50.9816 0.3367 84° East 428 493 35,000  Level FlightAware ADS-B
03:43 50.9872 0.4333 85° East 431 496 35,000  Level FlightAware ADS-B
03:43 50.9926 0.5282 85° East 433 498 35,000  Level FlightAware ADS-B
03:44 50.9984 0.6327 85° East 434 499 35,000  Level FlightAware ADS-B
03:44 51.0042 0.7401 85° East 434 499 35,000  Level FlightAware ADS-B
03:45 51.0099 0.8413 85° East 435 501 35,000  Level FlightAware ADS-B
03:45 51.0154 0.9449 85° East 435 501 35,000  Level FlightAware ADS-B
03:46 51.0221 1.0705 85° East 434 499 35,000 -120 Level FlightAware ADS-B
03:47 51.0259 1.1502 85° East 496 571 34,900  Descending FlightAware UK
03:47 51.0300 1.2210 85° East 431 496 35,000 60 Climbing FlightAware
03:48 51.0370 1.3540 85° East 431 496 35,000  Level FlightAware
03:48 51.0420 1.4640 86° East 433 498 35,000  Level FlightAware
03:49 51.0480 1.5760 85° East 437 503 35,000 120 Level FlightAware
03:49 51.0530 1.6880 86° East 449 517 35,200 300 Climbing FlightAware
03:50 51.0500 1.7504 86° East 500 575 35,400 480 Climbing FlightAware UK
03:50 51.0520 1.8040 86° East 476 548 35,500 900 Climbing FlightAware
03:50 51.0320 1.9310 104° East 505 581 36,000 780 Climbing FlightAware
03:51 51.0000 2.0400 115° Southeast 517 595 36,400 840 Climbing FlightAware
03:52 50.9610 2.1610 115° Southeast 517 595 37,000 960 Climbing FlightAware
03:52 50.9567 2.1225 115° Southeast 504 580 37,000 -240 Level FlightAware UK
03:52 50.9242 2.2238 115° Southeast 502 578 36,900  Descending FlightAware UK
03:52 50.9200 2.2890 115° Southeast 517 595 37,000 120 Climbing FlightAware
03:53 50.8860 2.3930 117° Southeast 516 594 37,000  Level FlightAware
03:53 50.8480 2.5140 116° Southeast 513 590 37,000  Level FlightAware
03:54 50.8150 2.6240 115° Southeast 507 583 37,000  Level FlightAware
03:55 50.7790 2.7510 114° Southeast 504 580 37,000  Level FlightAware
03:55 50.7460 2.8670 114° Southeast 504 580 37,000  Level FlightAware
03:56 50.7090 2.9950 114° Southeast 502 578 37,000  Level FlightAware
03:56 50.6770 3.1050 115° Southeast 503 579 37,000 -120 Level FlightAware
03:57 50.6433 3.1713 115° Southeast 492 566 36,900  Descending FlightAware UK
03:57 50.6430 3.2210 115° Southeast 504 580 37,000 120 Climbing FlightAware
03:57 50.6070 3.3410 115° Southeast 505 581 37,000  Level FlightAware
03:58 50.5790 3.4370 115° Southeast 505 581 37,000  Level FlightAware
03:59 50.5430 3.5580 115° Southeast 509 586 37,000  Level FlightAware
03:59 50.5030 3.6900 115° Southeast 511 588 37,000 -180 Level FlightAware
03:59 50.4998 3.6515 115° Southeast 492 566 36,900  Descending FlightAware UK
04:00 50.4690 3.8050 115° Southeast 514 592 37,000 60 Climbing FlightAware
04:00 50.4350 3.9170 115° Southeast 515 593 37,000  Level FlightAware
04:01 50.3970 4.0410 116° Southeast 517 595 37,000  Level FlightAware
04:02 50.3630 4.1530 115° Southeast 519 597 37,000  Level FlightAware
04:02 50.3250 4.2790 115° Southeast 521 600 37,000  Level FlightAware
04:03 50.2880 4.3990 116° Southeast 524 603 37,000  Level FlightAware
04:03 50.2490 4.5250 116° Southeast 525 604 37,000  Level FlightAware
04:04 50.2140 4.6350 116° Southeast 527 606 37,000  Level FlightAware
04:05 50.1680 4.7820 116° Southeast 529 609 37,000  Level FlightAware
04:05 50.1290 4.9080 116° Southeast 529 609 37,000  Level FlightAware
04:06 50.0920 5.0260 116° Southeast 528 608 37,000  Level FlightAware
04:06 50.0560 5.1380 117° Southeast 529 609 37,000  Level FlightAware
04:07 50.0180 5.2570 116° Southeast 529 609 37,000  Level FlightAware
04:08 49.9770 5.3870 116° Southeast 530 610 37,000  Level FlightAware
04:08 49.9380 5.5090 116° Southeast 530 610 37,000  Level FlightAware
04:09 49.9030 5.6160 117° Southeast 531 611 37,000  Level FlightAware
04:09 49.8650 5.7330 117° Southeast 531 611 37,000  Level FlightAware
04:10 49.8210 5.8670 117° Southeast 529 609 37,000  Level FlightAware
04:10 49.7820 5.9870 117° Southeast 529 609 37,000  Level FlightAware
04:11 49.7370 6.1260 117° Southeast 529 609 37,000  Level FlightAware
04:12 49.6930 6.2580 117° Southeast 529 609 37,000  Level FlightAware
04:12 49.6520 6.3800 117° Southeast 529 609 37,000  Level FlightAware
04:13 49.6120 6.5000 117° Southeast 529 609 37,000  Level FlightAware
04:14 49.5790 6.5970 118° Southeast 529 609 37,000  Level FlightAware
04:14 49.5370 6.7230 117° Southeast 528 608 37,000  Level FlightAware
04:15 49.4980 6.8390 117° Southeast 527 606 37,000  Level FlightAware
04:15 49.4570 6.9590 118° Southeast 526 605 37,000  Level FlightAware
04:16 49.4180 7.0720 118° Southeast 525 604 37,000  Level FlightAware
04:17 49.3770 7.1930 117° Southeast 523 602 37,000  Level FlightAware
04:17 49.3380 7.3040 118° Southeast 521 600 37,000  Level FlightAware
04:18 49.3010 7.4130 117° Southeast 520 598 37,000  Level FlightAware
04:18 49.2580 7.5380 118° Southeast 519 597 37,000  Level FlightAware
04:19 49.2210 7.6420 119° Southeast 519 597 37,000  Level FlightAware
04:19 49.1810 7.7560 118° Southeast 519 597 37,000  Level FlightAware
04:20 49.1380 7.8770 118° Southeast 519 597 37,000  Level FlightAware
04:21 49.1020 7.9810 118° Southeast 520 598 37,000  Level FlightAware
04:21 49.0630 8.0910 118° Southeast 521 600 37,000  Level FlightAware
04:22 49.0150 8.2250 119° Southeast 522 601 37,000  Level FlightAware
04:22 48.9700 8.3470 119° Southeast 524 603 37,000  Level FlightAware
04:23 48.9200 8.4530 126° Southeast 526 605 37,000  Level FlightAware
04:24 48.8680 8.5420 132° Southeast 527 606 37,000  Level FlightAware
04:24 48.8110 8.6340 133° Southeast 527 606 37,000  Level FlightAware
04:25 48.7480 8.7340 134° Southeast 525 604 37,000  Level FlightAware
04:25 48.6850 8.8350 133° Southeast 526 605 37,000  Level FlightAware
04:26 48.6360 8.9130 134° Southeast 526 605 37,000  Level FlightAware
04:27 48.5730 9.0140 133° Southeast 527 606 37,000  Level FlightAware
04:27 48.5160 9.1030 134° Southeast 527 606 37,000  Level FlightAware
04:28 48.4560 9.1980 134° Southeast 527 606 37,000  Level FlightAware
04:28 48.3970 9.2900 134° Southeast 526 605 37,000  Level FlightAware
04:29 48.3320 9.3920 134° Southeast 526 605 37,000  Level FlightAware
04:29 48.2800 9.4730 134° Southeast 526 605 37,000  Level FlightAware
04:30 48.2200 9.5570 137° Southeast 526 605 37,000  Level FlightAware
04:31 48.1430 9.6470 142° Southeast 525 604 37,000  Level FlightAware
04:31 48.0840 9.7070 146° Southeast 524 603 37,000  Level FlightAware
04:32 48.0080 9.7840 146° Southeast 524 603 37,000  Level FlightAware
04:32 47.9400 9.8540 145° Southeast 525 604 37,000  Level FlightAware
04:33 47.8650 9.9320 145° Southeast 524 603 37,000  Level FlightAware
04:34 47.8000 10.0000 145° Southeast 524 603 37,000  Level FlightAware
04:34 47.7270 10.0770 145° Southeast 524 603 37,000  Level FlightAware
04:35 47.6540 10.1520 145° Southeast 521 600 37,000  Level FlightAware
04:35 47.5950 10.2130 145° Southeast 520 598 37,000  Level FlightAware
04:36 47.5230 10.2880 145° Southeast 519 597 37,000  Level FlightAware
04:36 47.4580 10.3550 145° Southeast 518 596 37,000  Level FlightAware
04:37 47.3810 10.4330 146° Southeast 516 594 37,000  Level FlightAware
04:38 47.3200 10.4950 145° Southeast 516 594 37,000  Level FlightAware
04:38 47.2500 10.5660 145° Southeast 515 593 37,000  Level FlightAware
04:39 47.1750 10.6420 145° Southeast 514 592 37,000  Level FlightAware
04:39 47.1120 10.7050 146° Southeast 514 592 37,000  Level FlightAware
04:40 47.0380 10.7720 148° Southeast 511 588 37,000  Level FlightAware
04:40 46.9710 10.8250 152° Southeast 509 586 37,000  Level FlightAware
04:41 46.9040 10.8730 154° Southeast 508 585 37,000  Level FlightAware
04:42 46.8250 10.9280 155° Southeast 507 583 37,000  Level FlightAware
04:42 46.7510 10.9790 155° Southeast 505 581 37,000  Level FlightAware
04:43 46.6720 11.0330 155° Southeast 503 579 37,000  Level FlightAware
04:43 46.5980 11.0830 155° Southeast 501 577 37,000  Level FlightAware
04:44 46.5240 11.1340 155° Southeast 501 577 37,000  Level FlightAware
04:45 46.4550 11.1810 155° Southeast 499 574 37,000  Level FlightAware
04:45 46.3770 11.2340 155° Southeast 497 572 37,000  Level FlightAware
04:46 46.3010 11.2850 155° Southeast 496 571 37,000  Level FlightAware
04:46 46.2300 11.3330 155° Southeast 496 571 37,000  Level FlightAware
04:47 46.1590 11.3810 155° Southeast 497 572 37,000  Level FlightAware
04:48 46.0800 11.4340 155° Southeast 497 572 37,000  Level FlightAware
04:48 46.0000 11.4870 155° Southeast 495 570 37,000  Level FlightAware
04:49 45.9220 11.5390 155° Southeast 495 570 37,000  Level FlightAware
04:49 45.8500 11.5860 156° South 497 572 37,000  Level FlightAware
04:50 45.7730 11.6380 155° Southeast 496 571 37,000  Level FlightAware
04:51 45.7080 11.6890 151° Southeast 503 579 37,000  Level FlightAware
04:51 45.6500 11.7720 135° Southeast 516 594 37,000  Level FlightAware
04:52 45.6040 11.8820 121° Southeast 521 600 37,000  Level FlightAware
04:52 45.5630 11.9820 120° Southeast 523 602 37,000  Level FlightAware
04:53 45.5230 12.0790 120° Southeast 524 603 37,000  Level FlightAware
04:53 45.4780 12.1880 120° Southeast 524 603 37,000  Level FlightAware
04:54 45.4320 12.2990 121° Southeast 525 604 37,000  Level FlightAware
04:55 45.3930 12.3890 122° Southeast 526 605 37,000  Level FlightAware
04:55 45.3470 12.4980 121° Southeast 527 606 37,000  Level FlightAware
04:56 45.3040 12.6010 121° Southeast 527 606 37,000  Level FlightAware
04:56 45.2630 12.6960 121° Southeast 528 608 37,000  Level FlightAware
04:57 45.2130 12.8150 121° Southeast 530 610 37,000  Level FlightAware
04:58 45.1630 12.9300 122° Southeast 529 609 37,000  Level FlightAware
04:58 45.1210 13.0260 122° Southeast 529 609 37,000  Level FlightAware
04:59 45.0760 13.1320 121° Southeast 527 606 37,000  Level FlightAware
04:59 45.0370 13.2190 122° Southeast 526 605 37,000  Level FlightAware
05:00 44.9820 13.3400 123° Southeast 521 600 37,000  Level FlightAware
05:01 44.9370 13.4410 122° Southeast 519 597 37,000  Level FlightAware
05:01 44.8850 13.5550 123° Southeast 520 598 37,000  Level FlightAware
05:02 44.8460 13.6400 123° Southeast 520 598 37,000  Level FlightAware
05:02 44.7930 13.7570 123° Southeast 517 595 37,000  Level FlightAware
05:03 44.7480 13.8560 123° Southeast 515 593 37,000  Level FlightAware
05:04 44.7060 13.9470 123° Southeast 519 597 37,000  Level FlightAware
05:04 44.6480 14.0740 123° Southeast 513 590 37,000  Level FlightAware
05:05 44.6090 14.1570 123° Southeast 514 592 37,000  Level FlightAware
05:05 44.5540 14.2750 123° Southeast 513 590 37,000  Level FlightAware
05:06 44.5280 14.3320 123° Southeast 518 596 37,000  Level FlightAware
05:07 44.4810 14.4320 123° Southeast 516 594 37,000  Level FlightAware
05:07 44.4200 14.5620 123° Southeast 516 594 37,000  Level FlightAware
05:08 44.3760 14.6540 124° Southeast 512 589 37,000  Level FlightAware
05:08 44.3340 14.7450 123° Southeast 518 596 37,000  Level FlightAware
05:09 44.2690 14.8810 124° Southeast 520 598 37,000  Level FlightAware
05:10 44.2260 14.9710 124° Southeast 520 598 37,000  Level FlightAware
05:10 44.1630 15.1050 123° Southeast 520 598 37,000  Level FlightAware
05:11 44.0980 15.2380 124° Southeast 521 600 37,000  Level FlightAware
05:12 44.0510 15.3350 124° Southeast 522 601 37,000  Level FlightAware
05:12 44.0060 15.4300 123° Southeast 523 602 37,000  Level FlightAware
05:13 43.9500 15.5450 124° Southeast 523 602 37,000  Level FlightAware
05:14 43.9090 15.6280 124° Southeast 523 602 37,000  Level FlightAware
05:14 43.8550 15.7380 124° Southeast 524 603 37,000  Level FlightAware
05:15 43.8160 15.8190 124° Southeast 523 602 37,000  Level FlightAware
05:15 43.7620 15.9290 124° Southeast 523 602 37,000  Level FlightAware
05:16 43.7170 16.0190 125° Southeast 523 602 37,000  Level FlightAware
05:17 43.6640 16.1260 124° Southeast 524 603 37,000  Level FlightAware
05:17 43.6150 16.2260 124° Southeast 525 604 37,000  Level FlightAware
05:18 43.5700 16.3150 125° Southeast 525 604 37,000  Level FlightAware
05:18 43.5210 16.4130 125° Southeast 524 603 37,000  Level FlightAware
05:19 43.4770 16.5010 125° Southeast 525 604 37,000  Level FlightAware
05:19 43.4230 16.6090 125° Southeast 523 602 37,000  Level FlightAware
05:20 43.3760 16.7030 125° Southeast 523 602 37,000  Level FlightAware
05:21 43.3300 16.7940 125° Southeast 522 601 37,000  Level FlightAware
05:21 43.2790 16.8940 125° Southeast 519 597 37,000  Level FlightAware
05:22 43.2310 16.9890 125° Southeast 517 595 37,000  Level FlightAware
05:22 43.1870 17.0740 125° Southeast 517 595 37,000  Level FlightAware
05:23 43.1370 17.1730 125° Southeast 517 595 37,000  Level FlightAware
05:24 43.0860 17.2710 125° Southeast 516 594 37,000  Level FlightAware
05:24 43.0390 17.3620 125° Southeast 515 593 37,000  Level FlightAware
05:25 42.9900 17.4580 125° Southeast 514 592 37,000  Level FlightAware
05:25 42.9440 17.5480 125° Southeast 515 593 37,000  Level FlightAware
05:26 42.9000 17.6320 126° Southeast 516 594 37,000  Level FlightAware
05:26 42.8480 17.7310 126° Southeast 515 593 37,000  Level FlightAware
05:27 42.7950 17.8320 126° Southeast 516 594 37,000  Level FlightAware
05:28 42.7530 17.9140 125° Southeast 517 595 37,000  Level FlightAware
05:28 42.7040 18.0070 126° Southeast 517 595 37,000  Level FlightAware
05:29 42.6510 18.1040 127° Southeast 514 592 37,000  Level FlightAware
05:29 42.6060 18.1750 131° Southeast 511 588 37,000  Level FlightAware
05:30 42.5440 18.2630 134° Southeast 509 586 37,000  Level FlightAware
05:30 42.4840 18.3450 135° Southeast 509 586 37,000  Level FlightAware
05:31 42.4230 18.4270 135° Southeast 509 586 37,000  Level FlightAware
05:32 42.3640 18.5060 135° Southeast 509 586 37,000  Level FlightAware
05:32 42.3060 18.5830 136° Southeast 509 586 37,000  Level FlightAware
05:33 42.2450 18.6630 136° Southeast 509 586 37,000  Level FlightAware
05:33 42.1850 18.7420 136° Southeast 510 587 37,000  Level FlightAware
05:34 42.1180 18.8310 135° Southeast 510 587 37,000  Level FlightAware
05:35 42.0360 18.9370 136° Southeast 509 586 37,000  Level FlightAware
05:36 41.9710 19.0170 138° Southeast 509 586 37,000  Level FlightAware
05:36 41.9150 19.0830 139° Southeast 507 583 37,000  Level FlightAware
05:37 41.8490 19.1560 141° Southeast 508 585 37,000  Level FlightAware
05:37 41.7820 19.2300 141° Southeast 508 585 37,000  Level FlightAware
05:38 41.7280 19.2890 141° Southeast 507 583 37,000  Level FlightAware
05:38 41.6590 19.3650 141° Southeast 508 585 37,000  Level FlightAware
05:39 41.5930 19.4350 142° Southeast 506 582 37,000  Level FlightAware
05:40 41.5280 19.5010 143° Southeast 507 583 37,000  Level FlightAware
05:40 41.4620 19.5670 143° Southeast 506 582 37,000  Level FlightAware
05:41 41.3920 19.6320 145° Southeast 503 579 37,000  Level FlightAware
05:41 41.3290 19.6850 148° Southeast 503 579 37,000  Level FlightAware
05:42 41.2600 19.7460 146° Southeast 503 579 37,000  Level FlightAware
05:43 41.1910 19.8050 147° Southeast 502 578 37,000  Level FlightAware
05:43 41.1200 19.8690 146° Southeast 507 583 37,000  Level FlightAware
05:44 41.0670 19.9380 136° Southeast 511 588 37,000  Level FlightAware
05:44 41.0040 20.0280 133° Southeast 516 594 37,000  Level FlightAware
05:45 40.9530 20.1040 132° Southeast 516 594 37,000  Level FlightAware
05:45 40.8980 20.1870 131° Southeast 515 593 37,000  Level FlightAware
05:46 40.8450 20.2680 131° Southeast 515 593 37,000  Level FlightAware
05:47 40.7850 20.3580 131° Southeast 512 589 37,000  Level FlightAware
05:47 40.7350 20.4330 131° Southeast 513 590 37,000  Level FlightAware
05:48 40.6760 20.5220 131° Southeast 515 593 37,000  Level FlightAware
05:48 40.6200 20.6060 131° Southeast 515 593 37,000  Level FlightAware
05:49 40.5690 20.6820 131° Southeast 512 589 37,000  Level FlightAware
05:49 40.5180 20.7580 131° Southeast 509 586 37,000  Level FlightAware
05:50 40.4570 20.8490 131° Southeast 508 585 37,000  Level FlightAware
05:51 40.4010 20.9350 131° Southeast 513 590 37,000  Level FlightAware
05:51 40.3540 21.0190 126° Southeast 516 594 37,000  Level FlightAware
05:52 40.3060 21.1080 125° Southeast 516 594 37,000  Level FlightAware
05:52 40.2570 21.1970 126° Southeast 516 594 37,000  Level FlightAware
05:53 40.2050 21.2890 126° Southeast 518 596 37,000  Level FlightAware
05:54 40.1620 21.3640 127° Southeast 515 593 37,000  Level FlightAware
05:54 40.1070 21.4600 127° Southeast 516 594 37,000  Level FlightAware
05:55 40.0580 21.5450 127° Southeast 517 595 37,000  Level FlightAware
05:55 40.0080 21.6310 127° Southeast 518 596 37,000  Level FlightAware
05:56 39.9580 21.7190 127° Southeast 518 596 37,000  Level FlightAware
05:57 39.9070 21.8090 126° Southeast 517 595 37,000  Level FlightAware
05:57 39.8560 21.8990 126° Southeast 517 595 37,000  Level FlightAware
05:58 39.8100 21.9790 127° Southeast 520 598 37,000  Level FlightAware
05:58 39.7580 22.0700 127° Southeast 521 600 37,000  Level FlightAware
05:59 39.7060 22.1600 127° Southeast 521 600 37,000  Level FlightAware
05:59 39.6540 22.2490 127° Southeast 523 602 37,000  Level FlightAware
06:00 39.6070 22.3310 127° Southeast 526 605 37,000  Level FlightAware
06:01 39.5550 22.4220 127° Southeast 525 604 37,000  Level FlightAware
06:01 39.4980 22.5180 128° Southeast 522 601 37,000  Level FlightAware
06:02 39.4530 22.5950 127° Southeast 522 601 37,000  Level FlightAware
06:02 39.4010 22.6840 127° Southeast 522 601 37,000  Level FlightAware
06:03 39.3510 22.7710 127° Southeast 521 600 37,000  Level FlightAware
06:03 39.3020 22.8540 127° Southeast 521 600 37,000  Level FlightAware
06:04 39.2500 22.9420 127° Southeast 516 594 37,000  Level FlightAware
06:05 39.1990 23.0270 128° Southeast 514 592 37,000  Level FlightAware
06:05 39.1490 23.1120 127° Southeast 513 590 37,000  Level FlightAware
06:06 39.0970 23.1980 128° Southeast 510 587 37,000  Level FlightAware
06:06 39.0460 23.2840 127° Southeast 510 587 37,000  Level FlightAware
06:07 38.9960 23.3670 128° Southeast 510 587 37,000  Level FlightAware
06:08 38.9430 23.4560 127° Southeast 509 586 37,000  Level FlightAware
06:08 38.8930 23.5390 128° Southeast 507 583 37,000  Level FlightAware
06:09 38.8360 23.6330 128° Southeast 506 582 37,000  Level FlightAware
06:09 38.7850 23.7170 128° Southeast 505 581 37,000  Level FlightAware
06:10 38.7350 23.8000 128° Southeast 505 581 37,000  Level FlightAware
06:11 38.6780 23.8930 128° Southeast 512 589 37,000  Level FlightAware
06:12 38.5920 24.0330 128° Southeast 512 589 37,000  Level FlightAware
06:12 38.5480 24.1050 128° Southeast 514 592 37,000  Level FlightAware
06:13 38.4930 24.1960 128° Southeast 514 592 37,000  Level FlightAware
06:13 38.4400 24.2820 128° Southeast 512 589 37,000  Level FlightAware
06:14 38.3940 24.3560 128° Southeast 511 588 37,000  Level FlightAware
06:14 38.3410 24.4410 128° Southeast 511 588 37,000  Level FlightAware
06:15 38.2880 24.5260 128° Southeast 510 587 37,000  Level FlightAware
06:16 38.2340 24.6120 129° Southeast 509 586 37,000  Level FlightAware
06:16 38.1880 24.6860 128° Southeast 508 585 37,000  Level FlightAware
06:17 38.1360 24.7700 128° Southeast 506 582 37,000  Level FlightAware
06:17 38.0790 24.8590 129° Southeast 505 581 37,000  Level FlightAware
06:18 38.0330 24.9330 128° Southeast 505 581 37,000  Level FlightAware
06:19 37.9810 25.0150 129° Southeast 506 582 37,000  Level FlightAware
06:19 37.9160 25.1180 129° Southeast 507 583 37,000  Level FlightAware
06:20 37.8690 25.1920 129° Southeast 507 583 37,000  Level FlightAware
06:20 37.8160 25.2760 129° Southeast 505 581 37,000  Level FlightAware
06:21 37.7620 25.3590 129° Southeast 504 580 37,000  Level FlightAware
06:22 37.7100 25.4410 129° Southeast 503 579 37,000  Level FlightAware
06:22 37.6580 25.5220 129° Southeast 502 578 37,000  Level FlightAware
06:23 37.6110 25.5960 129° Southeast 501 577 37,000  Level FlightAware
06:23 37.5580 25.6780 129° Southeast 502 578 37,000  Level FlightAware
06:24 37.5050 25.7600 129° Southeast 503 579 37,000  Level FlightAware
06:25 37.4600 25.8290 129° Southeast 503 579 37,000  Level FlightAware
06:25 37.4070 25.9100 129° Southeast 503 579 37,000  Level FlightAware
06:26 37.3530 25.9940 129° Southeast 503 579 37,000  Level FlightAware
06:26 37.3000 26.0760 129° Southeast 502 578 37,000  Level FlightAware
06:27 37.2530 26.1470 130° Southeast 501 577 37,000  Level FlightAware
06:27 37.2010 26.2270 129° Southeast 501 577 37,000  Level FlightAware
06:28 37.1520 26.3010 130° Southeast 502 578 37,000  Level FlightAware
06:29 37.0930 26.3910 129° Southeast 502 578 37,000  Level FlightAware
06:29 37.0440 26.4650 130° Southeast 502 578 37,000  Level FlightAware
06:30 36.9920 26.5440 129° Southeast 503 579 37,000  Level FlightAware
06:30 36.9380 26.6250 130° Southeast 502 578 37,000  Level FlightAware
06:31 36.8910 26.6970 129° Southeast 503 579 37,000  Level FlightAware
06:32 36.8370 26.7780 130° Southeast 503 579 37,000  Level FlightAware
06:32 36.7840 26.8580 130° Southeast 503 579 37,000  Level FlightAware
06:33 36.7350 26.9310 130° Southeast 504 580 37,000  Level FlightAware
06:33 36.6810 27.0100 130° Southeast 506 582 37,000  Level FlightAware
06:34 36.6250 27.0950 129° Southeast 507 583 37,000  Level FlightAware
06:35 36.5550 27.1990 130° Southeast 506 582 37,000  Level FlightAware
06:35 36.5010 27.2810 129° Southeast 506 582 37,000  Level FlightAware
06:36 36.4550 27.3520 129° Southeast 506 582 37,000  Level FlightAware
06:37 36.3610 27.4880 131° Southeast 507 583 37,000  Level FlightAware
06:37 36.3150 27.5570 130° Southeast 507 583 37,000  Level FlightAware
06:38 36.2690 27.6280 129° Southeast 507 583 37,000  Level FlightAware
06:39 36.2240 27.6970 129° Southeast 507 583 37,000  Level FlightAware
06:39 36.1770 27.7680 129° Southeast 507 583 37,000  Level FlightAware
06:40 36.1320 27.8370 129° Southeast 507 583 37,000  Level FlightAware
06:40 36.0290 27.9700 134° Southeast 505 581 37,000  Level FlightAware
06:41 35.9780 28.0440 130° Southeast 505 581 37,000  Level FlightAware
06:42 35.9220 28.1250 130° Southeast 505 581 37,000  Level FlightAware
06:42 35.8680 28.2040 130° Southeast 506 582 37,000  Level FlightAware
06:43 35.8130 28.2820 131° Southeast 507 583 37,000  Level FlightAware
06:43 35.7580 28.3620 130° Southeast 507 583 37,000  Level FlightAware
06:44 35.7030 28.4410 131° Southeast 507 583 37,000  Level FlightAware
06:45 35.6520 28.5130 131° Southeast 507 583 37,000  Level FlightAware
06:45 35.5990 28.5900 130° Southeast 507 583 37,000  Level FlightAware
06:46 35.5430 28.6690 131° Southeast 507 583 37,000  Level FlightAware
06:46 35.4910 28.7420 131° Southeast 506 582 37,000  Level FlightAware
06:47 35.4260 28.8350 131° Southeast 500 575 37,000  Level FlightAware
06:48 35.3730 28.9110 131° Southeast 499 574 37,000  Level FlightAware
06:48 35.3150 28.9930 131° Southeast 499 574 37,000  Level FlightAware
06:49 35.2570 29.0740 131° Southeast 498 573 37,000  Level FlightAware
06:49 35.2020 29.1510 131° Southeast 498 573 37,000  Level FlightAware
06:50 35.1520 29.2210 131° Southeast 499 574 37,000  Level FlightAware
06:51 35.1050 29.2890 130° Southeast 499 574 37,000  Level FlightAware
06:52 34.9870 29.4520 131° Southeast 499 574 37,000  Level FlightAware
06:53 34.9170 29.5510 131° Southeast 499 574 37,000  Level FlightAware
06:53 34.8540 29.6370 132° Southeast 500 575 37,000  Level FlightAware
06:54 34.8070 29.7010 132° Southeast 501 577 37,000  Level FlightAware
06:54 34.7520 29.7780 131° Southeast 500 575 37,000  Level FlightAware
06:55 34.6980 29.8520 132° Southeast 499 574 37,000  Level FlightAware
06:56 34.6440 29.9260 132° Southeast 498 573 37,000  Level FlightAware
06:56 34.5950 29.9960 130° Southeast 498 573 37,000  Level FlightAware
06:57 34.5500 30.0610 130° Southeast 498 573 37,000  Level FlightAware
06:57 34.5090 30.1490 119° Southeast 509 586 37,000  Level FlightAware
06:58 34.4610 30.2480 120° Southeast 505 581 37,000  Level FlightAware
06:58 34.4190 30.3380 119° Southeast 509 586 37,000  Level FlightAware
06:59 34.3740 30.4300 121° Southeast 511 588 37,000  Level FlightAware
07:00 34.3310 30.5190 120° Southeast 512 589 37,000  Level FlightAware
07:00 34.2890 30.6060 120° Southeast 512 589 37,000  Level FlightAware
07:01 34.2470 30.6910 121° Southeast 512 589 37,000  Level FlightAware
07:01 34.2100 30.7670 120° Southeast 512 589 37,000  Level FlightAware
07:02 34.1680 30.8520 121° Southeast 513 590 37,000  Level FlightAware
07:03 34.1210 30.9490 120° Southeast 514 592 37,000  Level FlightAware
07:03 34.0750 31.0420 121° Southeast 512 589 37,000  Level FlightAware
07:04 34.0380 31.1180 120° Southeast 512 589 37,000  Level FlightAware
07:04 33.9850 31.2250 121° Southeast 514 592 37,000  Level FlightAware
07:05 33.9350 31.3270 121° Southeast 515 593 37,000  Level FlightAware
07:06 33.8910 31.4150 121° Southeast 517 595 37,000  Level FlightAware
07:06 33.8480 31.5020 121° Southeast 518 596 37,000  Level FlightAware
07:07 33.7970 31.6040 121° Southeast 518 596 37,000  Level FlightAware
07:08 33.7480 31.7030 121° Southeast 519 597 37,000  Level FlightAware
07:08 33.7100 31.7780 121° Southeast 519 597 37,000  Level FlightAware
07:09 33.6660 31.8650 121° Southeast 520 598 37,000  Level FlightAware
07:09 33.6210 31.9560 121° Southeast 525 604 37,000  Level FlightAware
07:10 33.5770 32.0430 121° Southeast 525 604 37,000  Level FlightAware
07:10 33.5310 32.1320 122° Southeast 525 604 37,000  Level FlightAware
07:11 33.4970 32.1990 121° Southeast 526 605 37,000  Level FlightAware
07:12 33.4480 32.2970 121° Southeast 525 604 37,000  Level FlightAware
07:12 33.3970 32.3970 121° Southeast 526 605 37,000  Level FlightAware
07:13 33.3510 32.4870 121° Southeast 526 605 37,000 -300 Level FlightAware
07:13 33.3080 32.5700 122° Southeast 528 608 36,700 -1,380 Descending FlightAware
07:14 33.2610 32.6630 121° Southeast 525 604 35,300 -2,220 Descending FlightAware
07:15 33.2190 32.7440 122° Southeast 514 592 34,100 -2,220 Descending FlightAware
07:15 33.1690 32.8400 122° Southeast 500 575 32,700 -2,160 Descending FlightAware
07:16 33.1320 32.9120 122° Southeast 489 563 31,700 -2,040 Descending FlightAware
07:17 33.0790 33.0150 122° Southeast 475 547 30,100 -2,160 Descending FlightAware
07:17 33.0410 33.0910 121° Southeast 465 535 28,800 -2,220 Descending FlightAware
07:18 32.9990 33.1740 121° Southeast 450 518 27,500 -1,920 Descending FlightAware
07:18 32.9710 33.2300 121° Southeast 440 506 26,600 -1,920 Descending FlightAware
07:19 32.9270 33.3150 122° Southeast 422 486 25,300 -2,880 Descending FlightAware
07:19 32.8860 33.3880 124° Southeast 432 497 23,100 -3,180 Descending FlightAware
07:20 32.8440 33.4560 126° Southeast 426 490 21,500 -2,580 Descending FlightAware
07:21 32.8100 33.5130 125° Southeast 420 483 20,300 -2,400 Descending FlightAware
07:21 32.7690 33.5800 126° Southeast 411 473 18,900 -2,340 Descending FlightAware
07:22 32.7310 33.6460 124° Southeast 403 464 17,500 -2,340 Descending FlightAware
07:22 32.6940 33.7080 125° Southeast 395 455 16,200 -2,100 Descending FlightAware
07:23 32.6640 33.7580 125° Southeast 389 448 15,200 -2,040 Descending FlightAware
07:24 32.6220 33.8270 126° Southeast 377 434 13,800 -2,220 Descending FlightAware
07:24 32.5820 33.8930 126° Southeast 368 423 12,400 -2,040 Descending FlightAware
07:25 32.5500 33.9470 125° Southeast 359 413 11,400 -1,980 Descending FlightAware
07:25 32.5160 34.0030 126° Southeast 351 404 10,200 -1,980 Descending FlightAware
07:26 32.4970 34.0350 125° Southeast 347 399 9,600 -1,860 Descending FlightAware
07:26 32.4710 34.0780 126° Southeast 340 391 8,700 -1,920 Descending FlightAware
07:26 32.4530 34.1080 125° Southeast 338 389 8,100 -1,920 Descending FlightAware
07:27 32.4310 34.1450 125° Southeast 336 387 7,300 -1,920 Descending FlightAware
07:27 32.4130 34.1740 126° Southeast 331 381 6,700 -1,740 Descending FlightAware
07:28 32.3950 34.2030 126° Southeast 327 376 6,200 -1,080 Descending FlightAware
07:28 32.3780 34.2320 125° Southeast 315 362 6,000 -240 Descending FlightAware
07:28 32.3500 34.2780 126° Southeast 303 349 6,000 60 Level FlightAware
07:29 32.3460 34.2830 133° Southeast 270 311 6,100 -120 Climbing FlightAware
07:29 32.3140 34.3400 124° Southeast 270 311 5,900 -660 Descending FlightAware
07:30 32.2920 34.3790 124° Southeast 273 314 5,600 -600 Descending FlightAware
07:30 32.2770 34.4040 125° Southeast 270 311 5,400 -660 Descending FlightAware
07:30 32.2630 34.4260 127° Southeast 272 313 5,200 -360 Descending FlightAware
07:31 32.2410 34.4620 126° Southeast 274 315 5,100 -120 Descending FlightAware
07:31 32.2250 34.4860 128° Southeast 267 307 5,100  Level FlightAware
07:32 32.2080 34.5140 126° Southeast 269 310 5,100  Level FlightAware
07:32 32.1950 34.5360 125° Southeast 268 308 5,100  Level FlightAware
07:32 32.1820 34.5600 123° Southeast 268 308 5,100  Level FlightAware
07:33 32.1650 34.5910 123° Southeast 267 307 5,100  Level FlightAware
07:33 32.1420 34.6310 124° Southeast 268 308 5,100  Level FlightAware
07:34 32.1280 34.6570 122° Southeast 266 306 5,100  Level FlightAware
07:34 32.1120 34.6860 123° Southeast 266 306 5,100 -180 Level FlightAware
07:34 32.0980 34.7110 123° Southeast 266 306 5,000  Descending FlightAware
07:35 32.0860 34.7340 122° Southeast 260 299 5,100 60 Climbing FlightAware
07:35 32.0650 34.7720 123° Southeast 228 262 5,100 -120 Level FlightAware
07:36 32.0510 34.7940 127° Southeast 230 265 5,000 -300 Descending FlightAware
07:36 32.0360 34.8130 133° Southeast 220 253 4,900 -660 Descending FlightAware
07:36 32.0260 34.8260 132° Southeast 216 249 4,600 -420 Descending FlightAware
07:37 32.0040 34.8520 135° Southeast 212 244 4,600  Level FlightAware
07:37 31.9910 34.8670 136° Southeast 207 238 4,600 -720 Level FlightAware
07:38 31.9730 34.8870 137° Southeast 200 230 4,000 -1,260 Descending FlightAware
07:38 31.9570 34.9110 128° Southeast 192 221 3,500 -1,380 Descending FlightAware
07:38 31.9590 34.9370 85° East 183 211 2,900 -1,080 Descending FlightAware
07:39 31.9660 34.9640 73° East 180 207 2,500 -480 Descending FlightAware
07:40 31.9730 34.9930 74° East 175 201 2,400 -840 Descending FlightAware
07:40 31.9860 34.9940 North 156 180 1,900 -1,200 Descending FlightAware
07:40 32.0030 34.9900 349° North 152 175 1,700 -480 Descending FlightAware
07:40 32.0090 34.9860 331° Northwest 150 173 1,600 -1,200 Descending FlightAware
07:41 32.0140 34.9720 293° West 165 190 1,100 -720 Descending FlightAware
07:41 32.0150 34.9500 273° West 165 190 1,100  Level FlightAware